Time;durP1;ratioP1;P1;durP2;ratioP2;P2;SDS_P1;SDS_P2;PMS_P1;PMS_P2;Temp;Humidity;BMP_temperature;BMP_pressure;BME280_temperature;BME280_humidity;BME280_pressure;Samples;Min_cycle;Max_cycle;Signal;HPM_P1;HPM_P2
2023/12/13 00:00:30;;;;;;;33.70;18.40;;;;;;;7.59;76.70;101450.16;5041966;28;20033;-86
2023/12/13 00:02:57;;;;;;;33.40;19.13;;;;;;;7.74;76.77;101477.31;5049057;28;20032;-85
2023/12/13 00:05:24;;;;;;;32.25;19.13;;;;;;;7.66;76.74;101463.75;5043757;28;20128;-86
2023/12/13 00:07:50;;;;;;;;;;;;;;;7.69;76.77;101463.97;5039265;28;20059;-86
2023/12/13 00:10:15;;;;;;;27.60;16.95;;;;;;;7.57;76.71;101450.03;5047705;28;19924;-85
2023/12/13 00:12:41;;;;;;;29.40;17.17;;;;;;;7.49;76.74;101436.47;5052320;28;20103;-86
2023/12/13 00:15:11;;;;;;;28.75;17.27;;;;;;;7.42;76.66;101413.38;5033584;28;20018;-84
2023/12/13 00:17:51;;;;;;;30.63;17.58;;;;;;;7.08;76.71;101357.91;5047516;28;20408;-84
2023/12/13 00:20:17;;;;;;;28.15;16.92;;;;;;;7.66;76.67;101471.56;5073568;28;20025;-85
2023/12/13 00:22:43;;;;;;;29.48;17.55;;;;;;;7.54;76.60;101445.50;5048851;28;20108;-84
2023/12/13 00:25:09;;;;;;;32.13;17.80;;;;;;;7.60;76.64;101450.28;5047435;28;20110;-87
2023/12/13 00:27:35;;;;;;;30.45;17.88;;;;;;;7.50;76.83;101433.06;5050082;28;20031;-87
2023/12/13 00:30:09;;;;;;;31.48;18.13;;;;;;;7.13;76.76;101365.28;5064319;28;20048;-87
2023/12/13 00:32:36;;;;;;;27.92;16.85;;;;;;;7.18;76.78;101367.34;5043642;28;20033;-87
2023/12/13 00:35:02;;;;;;;31.67;17.65;;;;;;;7.25;76.79;101375.72;5030033;28;20028;-87
2023/12/13 00:37:30;;;;;;;29.15;17.90;;;;;;;7.47;76.63;101414.66;5047983;28;20031;-89
2023/12/13 00:40:03;;;;;;;27.90;16.60;;;;;;;7.06;76.41;101342.22;5047783;28;20036;-87
2023/12/13 00:42:35;;;;;;;27.85;17.13;;;;;;;7.44;76.38;101410.91;5035149;28;20032;-88
2023/12/13 00:45:01;;;;;;;28.95;16.40;;;;;;;7.37;76.81;101406.94;5036919;28;20021;-87
2023/12/13 00:47:26;;;;;;;29.67;17.08;;;;;;;7.58;76.55;101438.88;5044390;28;20052;-87
2023/12/13 00:49:52;;;;;;;25.25;15.88;;;;;;;7.46;76.55;101420.63;5048566;28;20107;-87
2023/12/13 00:52:18;;;;;;;28.90;17.00;;;;;;;7.58;76.73;101445.72;5040232;28;20029;-87
2023/12/13 00:54:43;;;;;;;28.33;16.20;;;;;;;7.44;76.59;101408.31;5036889;28;20033;-86
2023/12/13 00:57:09;;;;;;;24.48;14.77;;;;;;;7.22;76.41;101367.69;5041719;28;20028;-86
2023/12/13 00:59:35;;;;;;;30.92;17.63;;;;;;;7.67;76.42;101433.47;5037655;28;20036;-86
2023/12/13 01:02:00;;;;;;;30.23;16.77;;;;;;;7.55;76.37;101416.13;5021827;28;20454;-87
2023/12/13 01:04:26;;;;;;;28.85;16.75;;;;;;;7.61;76.53;101436.47;5043417;28;20041;-86
2023/12/13 01:06:51;;;;;;;27.65;16.98;;;;;;;7.62;76.69;101426.97;5057637;28;20033;-86
2023/12/13 01:09:17;;;;;;;27.20;16.23;;;;;;;7.33;76.68;101381.50;5044179;28;20043;-86
2023/12/13 01:11:43;;;;;;;28.48;16.92;;;;;;;7.31;76.64;101377.88;5039142;28;20021;-87
2023/12/13 01:14:09;;;;;;;28.90;16.80;;;;;;;7.51;76.83;101401.09;5038578;28;21248;-86
2023/12/13 01:16:34;;;;;;;28.42;16.42;;;;;;;7.61;76.63;101409.59;5051691;28;20110;-86
2023/12/13 01:19:00;;;;;;;29.52;16.42;;;;;;;7.61;76.70;101394.00;5036477;28;20029;-87
2023/12/13 01:21:28;;;;;;;27.38;16.88;;;;;;;7.15;76.70;101313.44;5050704;28;20519;-86
2023/12/13 01:23:54;;;;;;;27.60;15.63;;;;;;;7.48;76.51;101374.88;5043316;28;20033;-86
2023/12/13 01:26:20;;;;;;;27.60;16.13;;;;;;;7.13;76.57;101310.75;5049709;28;20028;-87
2023/12/13 01:28:46;;;;;;;29.88;15.95;;;;;;;7.58;77.04;101392.06;5032219;28;20029;-86
2023/12/13 01:31:11;;;;;;;26.23;15.27;;;;;;;7.50;76.58;101395.78;5065906;28;20051;-86
2023/12/13 01:33:37;;;;;;;28.42;16.27;;;;;;;7.59;76.77;101405.97;5089138;28;20060;-87
2023/12/13 01:36:03;;;;;;;27.25;15.63;;;;;;;7.54;76.45;101396.13;5055345;28;20071;-86
2023/12/13 01:38:29;;;;;;;26.80;15.07;;;;;;;7.42;76.56;101378.69;5052565;28;20128;-86
2023/12/13 01:40:55;;;;;;;27.52;15.80;;;;;;;7.37;76.41;101362.75;5030080;28;20472;-86
2023/12/13 01:43:22;;;;;;;27.15;15.38;;;;;;;7.41;76.62;101366.47;5055734;28;20090;-86
2023/12/13 01:45:49;;;;;;;24.85;14.98;;;;;;;7.47;76.54;101378.28;5031130;28;20093;-86
2023/12/13 01:48:14;;;;;;;;;;;;;;;7.58;76.48;101399.88;5071367;28;20025;-87
2023/12/13 01:50:40;;;;;;;25.55;13.88;;;;;;;7.36;76.67;101362.63;5043110;28;19919;-87
2023/12/13 01:53:06;;;;;;;25.75;14.98;;;;;;;7.41;76.55;101369.06;5037667;28;20028;-88
2023/12/13 01:55:32;;;;;;;24.83;14.88;;;;;;;7.40;76.68;101369.88;5088152;28;20078;-87
2023/12/13 01:57:58;;;;;;;26.92;14.63;;;;;;;7.31;76.28;101350.19;5057588;28;20047;-89
2023/12/13 02:00:24;;;;;;;24.48;14.70;;;;;;;7.09;76.49;101316.50;5049611;28;20028;-88
2023/12/13 02:02:50;;;;;;;23.08;14.18;;;;;;;7.50;76.35;101399.28;5054610;28;20491;-87
2023/12/13 02:05:17;;;;;;;24.27;14.68;;;;;;;7.16;76.41;101327.38;5054776;28;20107;-88
2023/12/13 02:07:42;;;;;;;22.52;14.13;;;;;;;7.19;76.61;101338.88;5029390;28;20041;-86
2023/12/13 02:10:08;;;;;;;25.15;14.52;;;;;;;7.25;76.39;101346.22;5084587;28;20036;-88
2023/12/13 02:12:35;;;;;;;23.67;13.73;;;;;;;7.20;76.75;101325.09;5054856;28;20029;-85
2023/12/13 02:15:01;;;;;;;23.90;14.68;;;;;;;7.37;76.46;101352.38;5049027;28;20549;-86
2023/12/13 02:17:29;;;;;;;24.98;14.13;;;;;;;7.34;76.20;101336.53;5070062;28;20032;-87
2023/12/13 02:20:10;;;;;;;25.00;13.70;;;;;;;7.40;76.21;101349.09;5060723;28;20067;-86
2023/12/13 02:22:36;;;;;;;22.80;13.43;;;;;;;7.54;76.45;101375.34;5052068;28;20133;-85
2023/12/13 02:25:04;;;;;;;22.92;13.73;;;;;;;7.27;76.60;101324.78;5040247;28;20496;-85
2023/12/13 02:27:30;;;;;;;23.63;13.65;;;;;;;7.47;76.51;101353.94;5054127;28;20064;-85
2023/12/13 02:29:56;;;;;;;22.40;13.27;;;;;;;7.55;76.53;101368.44;5037256;28;20525;-86
2023/12/13 02:32:31;;;;;;;23.48;13.48;;;;;;;7.08;76.51;101283.50;5071672;28;20025;-85
2023/12/13 02:34:56;;;;;;;20.58;12.73;;;;;;;6.79;76.46;101254.41;5045141;28;20029;-85
2023/12/13 02:37:22;;;;;;;22.80;12.93;;;;;;;7.17;76.46;101319.66;5054228;28;20047;-85
2023/12/13 02:39:48;;;;;;;22.90;13.48;;;;;;;7.08;76.37;101306.88;5056945;28;20041;-86
2023/12/13 02:42:14;;;;;;;23.02;13.82;;;;;;;7.17;76.56;101330.06;5053905;28;20483;-86
2023/12/13 02:44:42;;;;;;;20.50;12.77;;;;;;;7.22;76.50;101343.41;5053165;28;20043;-86
2023/12/13 02:47:09;;;;;;;21.98;13.18;;;;;;;7.18;76.58;101334.47;5054117;28;20506;-86
2023/12/13 02:49:35;;;;;;;22.73;13.05;;;;;;;7.51;76.37;101381.97;5053397;28;20040;-86
2023/12/13 02:52:21;;;;;;;19.95;12.82;;;;;;;7.51;76.77;101375.13;5034979;28;20036;-87
2023/12/13 02:54:47;;;;;;;22.83;13.20;;;;;;;7.11;76.27;101298.41;5042957;28;20040;-86
2023/12/13 02:57:15;;;;;;;20.23;12.45;;;;;;;6.94;76.32;101284.13;5056934;28;20495;-86
2023/12/13 02:59:41;;;;;;;20.52;12.70;;;;;;;7.36;76.30;101353.13;5056945;28;20456;-88
2023/12/13 03:02:07;;;;;;;21.00;11.85;;;;;;;6.99;76.48;101301.00;5066973;28;20189;-87
2023/12/13 03:04:32;;;;;;;21.02;12.43;;;;;;;7.07;76.41;101302.50;5057013;28;20036;-85
2023/12/13 03:06:58;;;;;;;20.27;12.20;;;;;;;7.06;76.72;101295.47;5045104;28;20070;-86
2023/12/13 03:09:24;;;;;;;20.08;11.73;;;;;;;7.40;76.31;101357.78;5074209;28;20032;-86
2023/12/13 03:11:50;;;;;;;19.77;11.68;;;;;;;7.26;76.11;101337.63;5051881;28;20510;-86
2023/12/13 03:14:15;;;;;;;19.85;12.32;;;;;;;7.47;76.35;101369.53;5070891;28;20039;-86
2023/12/13 03:16:41;;;;;;;18.23;11.52;;;;;;;7.40;76.36;101365.56;5048209;28;20032;-86
2023/12/13 03:19:07;;;;;;;18.45;11.38;;;;;;;7.35;76.41;101356.53;5033222;28;20033;-87
2023/12/13 03:21:32;;;;;;;20.00;12.40;;;;;;;7.38;76.16;101355.88;5059424;28;20029;-87
2023/12/13 03:23:58;;;;;;;19.40;11.88;;;;;;;7.26;76.10;101340.22;5051132;28;20115;-86
2023/12/13 03:26:24;;;;;;;21.10;12.02;;;;;;;7.46;76.36;101379.03;5057740;28;20073;-86
2023/12/13 03:28:49;;;;;;;17.80;11.23;;;;;;;7.47;76.35;101377.34;5051001;28;20044;-86
2023/12/13 03:31:15;;;;;;;18.95;11.45;;;;;;;7.14;76.39;101324.63;5033750;28;20131;-85
2023/12/13 03:33:41;;;;;;;18.50;11.82;;;;;;;7.31;76.43;101363.19;5060422;28;20028;-87
2023/12/13 03:36:13;;;;;;;19.35;11.38;;;;;;;7.17;76.43;101336.94;5036588;28;20039;-87
2023/12/13 03:38:39;;;;;;;18.75;11.55;;;;;;;7.42;76.51;101397.78;5039577;28;20035;-87
2023/12/13 03:41:05;;;;;;;18.13;11.07;;;;;;;7.33;76.11;101379.81;5069908;28;20032;-87
2023/12/13 03:43:31;;;;;;;17.48;10.55;;;;;;;7.31;76.67;101375.28;5055120;28;20036;-86
2023/12/13 03:45:56;;;;;;;17.85;11.07;;;;;;;7.30;76.33;101371.78;5069427;28;20115;-87
2023/12/13 03:48:22;;;;;;;19.20;10.98;;;;;;;7.44;76.34;101384.91;5024429;28;20029;-86
2023/12/13 03:50:48;;;;;;;16.92;10.77;;;;;;;7.36;76.39;101373.94;5068813;28;20427;-86
2023/12/13 03:53:14;;;;;;;19.98;11.00;;;;;;;7.18;76.10;101338.78;5042583;28;20127;-86
2023/12/13 03:55:39;;;;;;;17.52;10.65;;;;;;;7.31;76.31;101370.09;5051370;28;20033;-87
2023/12/13 03:58:05;;;;;;;17.65;11.02;;;;;;;7.44;76.18;101384.91;5060201;28;20047;-88
2023/12/13 04:00:31;;;;;;;17.92;11.18;;;;;;;7.42;75.90;101379.59;5031957;28;20085;-86
2023/12/13 04:02:57;;;;;;;17.50;10.65;;;;;;;6.95;76.18;101303.25;5068474;28;20052;-86
2023/12/13 04:05:22;;;;;;;19.40;11.15;;;;;;;7.33;76.36;101364.22;5052929;28;20115;-87
2023/12/13 04:07:48;;;;;;;15.70;10.15;;;;;;;7.39;76.15;101375.84;5070843;28;20036;-86
2023/12/13 04:10:15;;;;;;;16.65;10.32;;;;;;;7.06;76.15;101326.63;5054646;28;20031;-86
2023/12/13 04:12:41;;;;;;;17.90;10.45;;;;;;;7.17;76.14;101350.81;5037323;28;20638;-86
2023/12/13 04:15:07;;;;;;;15.35;9.80;;;;;;;7.43;76.00;101391.81;5051781;28;20016;-86
2023/12/13 04:17:33;;;;;;;17.60;10.43;;;;;;;7.24;76.10;101344.41;5033003;28;20047;-87
2023/12/13 04:19:58;;;;;;;16.48;10.38;;;;;;;7.31;76.06;101350.19;5055443;28;20032;-87
2023/12/13 04:22:24;;;;;;;16.65;9.90;;;;;;;7.43;75.84;101378.81;5072449;28;20044;-87
2023/12/13 04:24:50;;;;;;;16.65;10.05;;;;;;;7.20;76.13;101332.91;5067516;28;20051;-87
2023/12/13 04:27:16;;;;;;;17.63;10.10;;;;;;;7.12;76.26;101315.81;5058411;28;20036;-88
2023/12/13 04:29:43;;;;;;;15.50;9.90;;;;;;;7.13;76.26;101333.19;5041329;28;20040;-86
2023/12/13 04:32:09;;;;;;;;;;;;;;;7.40;76.06;101386.38;5049717;28;20033;-87
2023/12/13 04:34:35;;;;;;;14.68;9.45;;;;;;;7.27;76.33;101366.34;5049001;28;19912;-87
2023/12/13 04:37:00;;;;;;;17.88;10.43;;;;;;;7.06;76.24;101337.03;5021860;28;20040;-87
2023/12/13 04:39:26;;;;;;;15.93;9.63;;;;;;;7.20;76.34;101364.06;5048478;28;20029;-87
2023/12/13 04:41:52;;;;;;;15.40;9.65;;;;;;;7.40;75.92;101404.56;5048859;28;20181;-88
2023/12/13 04:44:18;;;;;;;16.00;9.82;;;;;;;7.06;75.96;101359.50;5048592;28;20037;-88
2023/12/13 04:46:44;;;;;;;15.18;9.10;;;;;;;7.11;75.61;101368.53;5044980;28;20033;-88
2023/12/13 04:49:09;;;;;;;17.80;9.73;;;;;;;7.32;75.77;101416.97;5046468;28;20037;-88
2023/12/13 04:51:35;;;;;;;14.98;9.32;;;;;;;7.22;76.12;101404.06;5038274;28;20065;-88
2023/12/13 04:54:01;;;;;;;15.52;9.88;;;;;;;6.89;75.94;101360.78;5035180;28;20037;-87
2023/12/13 04:56:30;;;;;;;14.07;8.85;;;;;;;6.87;76.14;101362.34;5041343;28;20120;-87
2023/12/13 04:58:55;;;;;;;17.75;9.98;;;;;;;7.09;76.05;101393.47;5036046;28;20084;-88
2023/12/13 05:01:21;;;;;;;16.67;10.05;;;;;;;7.03;75.53;101375.75;5031259;28;20492;-88
2023/12/13 05:03:47;;;;;;;18.38;10.43;;;;;;;7.14;75.93;101389.56;5026975;28;20051;-88
2023/12/13 05:06:14;;;;;;;14.77;9.40;;;;;;;7.13;75.88;101387.75;5038979;28;20163;-88
2023/12/13 05:08:40;;;;;;;16.55;9.85;;;;;;;7.22;76.04;101395.38;5039679;28;20048;-87
2023/12/13 05:11:06;;;;;;;14.68;9.10;;;;;;;7.14;76.14;101382.66;5036009;28;20025;-86
2023/12/13 05:13:31;;;;;;;15.18;9.20;;;;;;;7.28;76.26;101414.94;5047338;28;20167;-87
2023/12/13 05:15:57;;;;;;;16.05;9.70;;;;;;;7.29;76.26;101416.72;5047893;28;20104;-89
2023/12/13 05:18:23;;;;;;;15.88;9.73;;;;;;;7.17;76.25;101394.09;5041758;28;20028;-86
2023/12/13 05:20:49;;;;;;;15.73;9.63;;;;;;;7.00;76.15;101369.41;5045408;28;20056;-88
2023/12/13 05:23:14;;;;;;;16.33;9.93;;;;;;;7.31;76.17;101422.03;5042852;28;20028;-87
2023/12/13 05:25:40;;;;;;;15.77;9.88;;;;;;;7.17;76.08;101387.19;5024898;28;20036;-86
2023/12/13 05:28:06;;;;;;;15.07;9.25;;;;;;;6.91;76.31;101352.31;5040420;28;20090;-87
2023/12/13 05:30:32;;;;;;;16.70;9.90;;;;;;;7.08;76.08;101370.91;5043542;28;20098;-87
2023/12/13 05:32:57;;;;;;;17.48;10.77;;;;;;;7.10;76.05;101369.34;5047269;28;20029;-87
2023/12/13 05:35:23;;;;;;;17.67;9.85;;;;;;;7.08;76.28;101369.22;5017604;28;20037;-87
2023/12/13 05:37:48;;;;;;;15.73;9.40;;;;;;;7.28;76.18;101411.41;5042591;28;20040;-87
2023/12/13 05:40:14;;;;;;;15.82;9.95;;;;;;;7.17;76.12;101383.69;5033253;28;20116;-87
2023/12/13 05:42:40;;;;;;;15.32;9.43;;;;;;;7.02;76.17;101358.34;5043499;28;20044;-87
2023/12/13 05:45:09;;;;;;;14.93;9.52;;;;;;;7.32;76.33;101409.19;5038739;28;20025;-88
2023/12/13 05:47:34;;;;;;;15.15;9.63;;;;;;;7.16;76.42;101381.91;5050413;28;20033;-87
2023/12/13 05:50:00;;;;;;;14.45;9.02;;;;;;;7.31;76.26;101398.66;5044096;28;20035;-87
2023/12/13 05:52:27;;;;;;;15.25;9.63;;;;;;;7.09;76.19;101364.91;5042443;28;20456;-88
2023/12/13 05:54:54;;;;;;;16.05;9.80;;;;;;;7.21;76.10;101386.66;5044919;28;20510;-87
2023/12/13 05:57:20;;;;;;;15.57;9.52;;;;;;;7.16;76.06;101372.41;5035875;28;20021;-88
2023/12/13 05:59:46;;;;;;;16.52;9.55;;;;;;;7.10;76.00;101364.16;5050307;28;20024;-88
2023/12/13 06:02:13;;;;;;;14.82;9.43;;;;;;;7.27;76.33;101397.50;5032402;28;20408;-87
2023/12/13 06:04:41;;;;;;;15.52;9.18;;;;;;;7.20;76.44;101371.88;5046883;28;20039;-88
2023/12/13 06:07:07;;;;;;;16.25;9.50;;;;;;;6.86;76.21;101319.91;5043802;28;20051;-89
2023/12/13 06:09:33;;;;;;;15.07;9.43;;;;;;;7.19;76.28;101390.81;5043723;28;20024;-89
2023/12/13 06:12:00;;;;;;;14.82;9.40;;;;;;;7.20;76.05;101396.94;5048304;28;20072;-89
2023/12/13 06:14:26;;;;;;;15.02;9.05;;;;;;;7.24;76.27;101409.34;5023970;28;20024;-89
2023/12/13 06:16:52;;;;;;;17.27;9.68;;;;;;;7.14;76.29;101403.44;5031430;28;20037;-87
2023/12/13 06:19:17;;;;;;;14.52;8.93;;;;;;;7.13;76.20;101393.88;5059938;28;20068;-88
2023/12/13 06:21:43;;;;;;;14.02;9.15;;;;;;;7.31;76.16;101432.44;5048274;28;20024;-88
2023/12/13 06:24:09;;;;;;;17.35;9.35;;;;;;;7.09;76.39;101420.38;5046454;28;20098;-88
2023/12/13 06:26:34;;;;;;;13.13;8.63;;;;;;;7.29;76.02;101444.41;5052126;28;20048;-89
2023/12/13 06:29:00;;;;;;;14.38;8.93;;;;;;;7.13;75.83;101421.50;5039212;28;20106;-87
2023/12/13 06:31:26;;;;;;;14.70;9.02;;;;;;;6.93;75.95;101373.22;5033145;28;20048;-87
2023/12/13 06:33:52;;;;;;;13.30;8.38;;;;;;;7.24;76.13;101432.72;5051830;28;20056;-87
2023/12/13 06:36:18;;;;;;;17.63;9.90;;;;;;;7.02;76.00;101373.94;5033399;28;20526;-87
2023/12/13 06:38:43;;;;;;;15.75;9.70;;;;;;;7.02;75.87;101379.13;5069308;28;20039;-87
2023/12/13 06:41:09;;;;;;;15.15;8.93;;;;;;;7.33;76.09;101431.75;5035463;28;20044;-86
2023/12/13 06:43:35;;;;;;;15.43;9.40;;;;;;;7.33;75.89;101423.97;5036261;28;20043;-86
2023/12/13 06:46:00;;;;;;;13.13;8.65;;;;;;;7.20;75.85;101369.25;5068467;28;20028;-86
2023/12/13 06:48:26;;;;;;;16.38;9.73;;;;;;;7.29;76.01;101367.34;5068437;28;20040;-84
2023/12/13 06:50:52;;;;;;;14.98;9.32;;;;;;;6.67;76.32;101264.78;5069271;28;20051;-85
2023/12/13 06:53:17;;;;;;;17.42;9.45;;;;;;;7.00;75.98;101323.56;5060185;28;20086;-85
2023/12/13 06:55:43;;;;;;;15.73;9.63;;;;;;;7.15;75.80;101355.00;5040727;28;20059;-84
2023/12/13 06:58:09;;;;;;;14.98;8.98;;;;;;;7.04;76.08;101338.59;5051275;28;20465;-84
2023/12/13 07:00:35;;;;;;;15.82;8.88;;;;;;;7.15;76.51;101339.41;5051829;28;20044;-84
2023/12/13 07:03:01;;;;;;;13.88;8.40;;;;;;;7.18;76.51;101336.19;5047494;28;20500;-85
2023/12/13 07:05:27;;;;;;;;;;;;;;;7.27;76.19;101339.47;5044259;28;20032;-83
2023/12/13 07:07:52;;;;;;;14.55;8.90;;;;;;;7.22;76.13;101320.03;5064048;28;20303;-83
2023/12/13 07:10:18;;;;;;;14.38;8.35;;;;;;;7.28;76.12;101347.38;5068077;28;20085;-84
2023/12/13 07:12:44;;;;;;;13.43;8.60;;;;;;;7.32;76.38;101370.22;5066167;28;20560;-83
2023/12/13 07:15:10;;;;;;;;;;;;;;;7.39;75.98;101378.44;5058191;28;20029;-84
2023/12/13 07:17:37;;;;;;;12.90;8.48;;;;;;;7.29;76.06;101356.06;5056085;28;19913;-84
2023/12/13 07:20:05;;;;;;;13.07;8.02;;;;;;;7.24;76.36;101357.41;5062025;28;20029;-84
2023/12/13 07:22:30;;;;;;;13.52;9.02;;;;;;;7.42;76.51;101392.59;5051334;28;20056;-82
2023/12/13 07:24:56;;;;;;;13.73;8.80;;;;;;;7.34;76.67;101394.63;5049187;28;20131;-84
2023/12/13 07:27:22;;;;;;;12.80;8.32;;;;;;;7.43;76.50;101399.63;5061505;28;20078;-86
2023/12/13 07:29:47;;;;;;;13.75;8.27;;;;;;;7.40;76.57;101382.88;5046347;28;20052;-87
2023/12/13 07:32:13;;;;;;;14.98;8.85;;;;;;;7.31;76.73;101364.88;5032289;28;20059;-86
2023/12/13 07:34:41;;;;;;;13.88;7.90;;;;;;;7.17;76.44;101331.75;5034002;28;20143;-85
2023/12/13 07:37:07;;;;;;;13.00;8.02;;;;;;;7.22;76.96;101330.44;5044143;28;20032;-86
2023/12/13 07:39:36;;;;;;;13.98;8.45;;;;;;;7.10;76.62;101294.91;5032872;28;20039;-86
2023/12/13 07:42:05;;;;;;;13.50;8.30;;;;;;;7.24;76.72;101301.19;5050447;28;20067;-86
2023/12/13 07:44:33;;;;;;;11.73;8.02;;;;;;;7.46;76.65;101333.97;5049220;28;20032;-86
2023/12/13 07:46:59;;;;;;;11.80;7.70;;;;;;;7.47;76.92;101335.75;5034707;28;20043;-87
2023/12/13 07:49:27;;;;;;;12.50;7.70;;;;;;;7.33;76.86;101316.56;5052032;28;20029;-88
2023/12/13 07:51:52;;;;;;;12.32;7.75;;;;;;;7.24;76.83;101295.97;5047690;28;20028;-87
2023/12/13 07:54:19;;;;;;;11.40;7.20;;;;;;;7.45;76.93;101335.69;5048060;28;20082;-87
2023/12/13 07:56:50;;;;;;;13.85;8.10;;;;;;;7.45;76.99;101322.69;5050165;28;20035;-89
2023/12/13 07:59:16;;;;;;;12.05;7.40;;;;;;;7.52;77.10;101334.44;5035740;28;20033;-87
2023/12/13 08:01:42;;;;;;;11.57;7.22;;;;;;;7.51;76.85;101323.16;5047749;28;20036;-87
2023/12/13 08:04:07;;;;;;;12.40;7.45;;;;;;;7.43;76.86;101289.53;5046012;28;20040;-87
2023/12/13 08:06:33;;;;;;;11.05;7.05;;;;;;;7.48;76.99;101302.09;5042816;28;20028;-86
2023/12/13 08:08:59;;;;;;;12.63;7.63;;;;;;;7.40;77.01;101281.53;5048982;28;20040;-85
2023/12/13 08:11:25;;;;;;;10.73;7.00;;;;;;;7.59;77.19;101317.59;5062376;28;20033;-84
2023/12/13 08:13:51;;;;;;;10.55;7.00;;;;;;;7.43;77.13;101292.16;5064774;28;20152;-85
2023/12/13 08:16:18;;;;;;;;;;;;;;;7.70;77.36;101335.81;5051703;28;20024;-86
2023/12/13 08:18:45;;;;;;;10.60;6.25;;;;;;;7.43;77.49;101285.28;5048368;28;19913;-90
2023/12/13 08:21:11;;;;;;;10.38;6.68;;;;;;;7.41;77.22;101276.47;5032417;28;20035;-87
2023/12/13 08:23:37;;;;;;;13.52;7.15;;;;;;;7.52;76.88;101301.53;5055816;28;20443;-86
2023/12/13 08:26:03;;;;;;;10.27;6.80;;;;;;;7.67;77.36;101329.47;5039011;28;20083;-88
2023/12/13 08:28:29;;;;;;;10.10;6.80;;;;;;;7.70;77.66;101340.09;5077601;28;20778;-86
2023/12/13 08:30:55;;;;;;;10.45;6.45;;;;;;;7.59;77.42;101305.50;5059988;28;20041;-87
2023/12/13 08:33:22;;;;;;;14.70;8.02;;;;;;;7.48;77.24;101285.63;5033622;28;20032;-85
2023/12/13 08:35:47;;;;;;;11.70;6.78;;;;;;;7.53;77.33;101289.44;5060017;28;20024;-82
2023/12/13 08:38:13;;;;;;;11.32;7.00;;;;;;;7.80;77.00;101329.59;5057647;28;20040;-87
2023/12/13 08:40:39;;;;;;;10.77;6.95;;;;;;;7.90;77.23;101339.88;5047984;28;20041;-86
2023/12/13 08:43:05;;;;;;;11.20;6.47;;;;;;;7.67;77.23;101277.50;5049526;28;20017;-86
2023/12/13 08:45:31;;;;;;;9.32;6.10;;;;;;;7.84;76.67;101297.81;5033393;28;20082;-86
2023/12/13 08:47:57;;;;;;;9.55;6.05;;;;;;;8.01;77.06;101316.38;5048403;28;20246;-85
2023/12/13 08:50:22;;;;;;;9.45;6.65;;;;;;;7.79;76.53;101270.59;5063710;28;20431;-86
2023/12/13 08:52:48;;;;;;;9.75;6.40;;;;;;;7.71;76.41;101259.63;5063765;28;20028;-85
2023/12/13 08:55:14;;;;;;;18.50;6.63;;;;;;;7.93;77.10;101289.78;5066337;28;20036;-85
2023/12/13 08:57:40;;;;;;;20.23;6.55;;;;;;;8.10;77.01;101304.91;5056393;28;20060;-85
2023/12/13 09:00:07;;;;;;;12.55;6.75;;;;;;;7.89;76.87;101264.34;5076036;28;20086;-86
2023/12/13 09:02:32;;;;;;;13.38;6.18;;;;;;;7.77;76.81;101234.84;5054121;28;20035;-86
2023/12/13 09:04:58;;;;;;;11.38;5.68;;;;;;;8.00;76.85;101259.94;5053357;28;20243;-86
2023/12/13 09:07:24;;;;;;;10.43;6.10;;;;;;;7.78;76.67;101227.19;5061170;28;20708;-86
2023/12/13 09:09:49;;;;;;;10.85;6.13;;;;;;;7.69;76.66;101200.53;5060854;28;20028;-85
2023/12/13 09:12:15;;;;;;;10.57;6.22;;;;;;;7.94;77.32;101243.09;5071580;28;20036;-85
2023/12/13 09:14:41;;;;;;;10.43;6.32;;;;;;;8.09;77.14;101248.50;5051673;28;20028;-85
2023/12/13 09:17:07;;;;;;;;;;;;;;;8.10;77.10;101252.88;5050214;28;20045;-84
2023/12/13 09:19:33;;;;;;;10.48;6.30;;;;;;;7.93;77.16;101211.78;5066744;28;19935;-85
2023/12/13 09:22:03;;;;;;;9.95;6.00;;;;;;;7.80;77.01;101185.69;5053146;28;20034;-84
2023/12/13 09:24:28;;;;;;;11.25;6.40;;;;;;;8.16;76.88;101253.31;5040887;28;20562;-84
2023/12/13 09:26:54;;;;;;;15.10;6.80;;;;;;;8.18;77.01;101248.25;5052586;28;20056;-83
2023/12/13 09:29:21;;;;;;;11.40;6.43;;;;;;;8.05;77.47;101224.75;5059661;28;20503;-83
2023/12/13 09:31:47;;;;;;;9.60;5.82;;;;;;;8.19;77.29;101246.53;5054311;28;20024;-84
2023/12/13 09:34:13;;;;;;;10.70;6.20;;;;;;;8.11;77.15;101246.00;5068432;28;20024;-84
2023/12/13 09:36:40;;;;;;;10.98;5.93;;;;;;;8.08;77.31;101241.47;5054825;28;20565;-85
2023/12/13 09:39:06;;;;;;;12.13;6.38;;;;;;;8.19;77.34;101256.94;5054445;28;20024;-85
2023/12/13 09:41:45;;;;;;;11.32;6.53;;;;;;;8.10;77.25;101239.00;5046828;28;20024;-85
2023/12/13 09:44:13;;;;;;;11.32;6.82;;;;;;;7.94;77.31;101196.28;5058953;28;20027;-84
2023/12/13 09:46:40;;;;;;;10.60;6.38;;;;;;;8.08;77.29;101227.56;5042487;28;20039;-85
2023/12/13 09:49:06;;;;;;;11.00;6.18;;;;;;;8.05;77.35;101204.84;5054390;28;20012;-85
2023/12/13 09:51:33;;;;;;;10.23;6.15;;;;;;;8.33;77.35;101258.84;5041358;28;20025;-86
2023/12/13 09:53:58;;;;;;;11.18;6.47;;;;;;;8.02;77.53;101201.13;5068154;28;20085;-85
2023/12/13 09:56:24;;;;;;;11.30;6.32;;;;;;;8.16;77.38;101203.00;5050566;28;20025;-86
2023/12/13 09:58:50;;;;;;;9.70;6.28;;;;;;;7.81;77.97;101151.09;5071558;28;20059;-87
2023/12/13 10:01:17;;;;;;;9.73;6.20;;;;;;;8.11;77.85;101189.69;5052583;28;20031;-85
2023/12/13 10:03:43;;;;;;;9.30;5.82;;;;;;;8.24;77.88;101204.47;5045524;28;20043;-87
2023/12/13 10:06:09;;;;;;;12.02;6.35;;;;;;;8.37;77.88;101232.25;5067084;28;20107;-85
2023/12/13 10:08:36;;;;;;;10.57;6.05;;;;;;;8.33;78.22;101219.81;5075109;28;20036;-87
2023/12/13 10:11:03;;;;;;;9.88;6.32;;;;;;;8.41;78.63;101217.78;5051259;28;20506;-87
2023/12/13 10:13:31;;;;;;;11.27;6.80;;;;;;;8.20;78.77;101175.53;5057739;28;20095;-87
2023/12/13 10:16:17;;;;;;;12.18;6.50;;;;;;;8.41;78.58;101192.66;5054846;28;20508;-87
2023/12/13 10:18:43;;;;;;;12.60;6.38;;;;;;;7.98;78.97;101113.28;5049256;28;20039;-86
2023/12/13 10:21:10;;;;;;;11.57;6.47;;;;;;;8.39;78.26;101173.41;5059292;28;20032;-87
2023/12/13 10:23:36;;;;;;;12.55;6.70;;;;;;;8.49;78.78;101161.97;5046922;28;20062;-86
2023/12/13 10:26:02;;;;;;;12.43;6.60;;;;;;;8.46;79.13;101160.03;5062552;28;20033;-86
2023/12/13 10:28:47;;;;;;;12.23;6.70;;;;;;;8.48;79.37;101157.53;5069083;28;20111;-86
2023/12/13 10:31:12;;;;;;;13.57;7.03;;;;;;;8.06;80.49;101079.19;5043092;28;20049;-85
2023/12/13 10:33:38;;;;;;;13.63;6.78;;;;;;;8.38;79.63;101132.53;5039042;28;20415;-84
2023/12/13 10:36:05;;;;;;;13.65;7.32;;;;;;;8.31;80.11;101123.41;5084265;28;20041;-83
2023/12/13 10:38:31;;;;;;;12.93;7.15;;;;;;;8.31;79.20;101120.81;5052437;28;20043;-83
2023/12/13 10:40:57;;;;;;;11.73;7.40;;;;;;;8.06;80.07;101087.00;5052936;28;20066;-83
2023/12/13 10:43:24;;;;;;;13.40;7.35;;;;;;;8.06;81.19;101094.81;5053812;28;20032;-82
2023/12/13 10:45:58;;;;;;;13.40;6.97;;;;;;;8.37;80.51;101141.16;5061653;28;20024;-84
2023/12/13 10:48:30;;;;;;;15.05;7.60;;;;;;;8.35;79.84;101130.63;5070367;28;20077;-84
2023/12/13 10:51:00;;;;;;;11.60;7.07;;;;;;;8.50;80.55;101148.13;5054829;28;20016;-84
2023/12/13 10:53:26;;;;;;;13.00;7.43;;;;;;;8.56;80.80;101138.16;5086468;28;20028;-84
2023/12/13 10:55:55;;;;;;;13.48;7.60;;;;;;;8.58;81.07;101139.16;5041564;28;20025;-85
2023/12/13 10:58:23;;;;;;;14.27;7.60;;;;;;;8.49;80.95;101113.41;5045815;28;20052;-83
2023/12/13 11:00:51;;;;;;;11.77;7.90;;;;;;;8.18;80.36;101060.06;5065474;28;20046;-83
2023/12/13 11:03:41;;;;;;;15.68;8.18;;;;;;;8.63;80.30;101129.94;5043552;28;20025;-85
2023/12/13 11:06:07;;;;;;;13.68;8.23;;;;;;;8.27;81.35;101071.06;5050819;28;20025;-84
2023/12/13 11:08:40;;;;;;;13.55;7.75;;;;;;;8.67;80.93;101131.94;5074931;28;20576;-86
2023/12/13 11:11:13;;;;;;;13.23;7.68;;;;;;;8.68;81.35;101117.25;5078670;28;20440;-86
2023/12/13 11:13:49;;;;;;;13.02;8.27;;;;;;;8.55;81.44;101097.28;5096808;28;20029;-87
2023/12/13 11:16:17;;;;;;;12.93;7.95;;;;;;;8.53;81.57;101078.97;5103802;28;20063;-85
2023/12/13 11:18:45;;;;;;;14.15;7.80;;;;;;;8.41;81.87;101053.84;5071269;28;20013;-86
2023/12/13 11:21:13;;;;;;;12.82;7.78;;;;;;;8.52;81.33;101065.84;5093448;28;20031;-86